Time;durP1;ratioP1;P1;durP2;ratioP2;P2;SDS_P1;SDS_P2;PMS_P1;PMS_P2;Temp;Humidity;BMP_temperature;BMP_pressure;BME280_temperature;BME280_humidity;BME280_pressure;Samples;Min_cycle;Max_cycle;Signal;HPM_P1;HPM_P2
2021/07/25 00:01:17;;;;;;;;;;;;;;;16.07;93.62;98732.81;5032793;28;19928;-61
2021/07/25 00:03:42;;;;;;;;;;;;;;;16.09;93.47;98719.81;5032839;28;19921;-62
2021/07/25 00:06:13;;;;;;;;;;;;;;;16.15;93.51;98728.69;5032727;28;19921;-61
2021/07/25 00:08:38;;;;;;;;;;;;;;;16.13;93.48;98736.28;5033233;28;19917;-61
2021/07/25 00:11:04;;;;;;;;;;;;;;;16.08;93.87;98718.22;5032638;28;19928;-61
2021/07/25 00:13:30;;;;;;;;;;;;;;;16.04;93.86;98722.59;5033052;28;19918;-61
2021/07/25 00:15:55;;;;;;;;;;;;;;;16.04;93.74;98722.59;5032629;28;20414;-61
2021/07/25 00:18:20;;;;;;;;;;;;;;;15.96;94.32;98726.72;5033143;28;19918;-61
2021/07/25 00:20:45;;;;;;;;;;;;;;;15.98;94.14;98731.88;5032835;28;20382;-61
2021/07/25 00:23:17;;;;;;;;;;;;;;;15.96;94.06;98726.72;5032894;28;19955;-61
2021/07/25 00:25:42;;;;;;;;;;;;;;;15.94;94.44;98733.53;5032608;28;19921;-61
2021/07/25 00:28:14;;;;;;;;;;;;;;;15.89;94.76;98722.78;5032922;28;19917;-61
2021/07/25 00:30:39;;;;;;;;;;;;;;;15.89;94.88;98730.88;5031348;28;19921;-61
2021/07/25 00:33:04;;;;;;;;;;;;;;;15.88;94.85;98740.09;5032760;28;19943;-61
2021/07/25 00:35:30;;;;;;;;;;;;;;;15.84;95.12;98736.34;5032275;28;19921;-61
2021/07/25 00:37:55;;;;;;;;;;;;;;;15.86;94.74;98736.88;5032875;28;20008;-61
2021/07/25 00:40:20;;;;;;;;;;;;;;;15.89;94.79;98736.28;5032380;28;20383;-61
2021/07/25 00:42:45;;;;;;;;;;;;;;;15.88;94.54;98727.38;5032823;28;20015;-60
2021/07/25 00:45:11;;;;;;;;;;;;;;;15.90;94.20;98727.09;5031088;28;19921;-61
2021/07/25 00:47:37;;;;;;;;;;;;;;;15.93;94.13;98726.53;5032956;28;20104;-61
2021/07/25 00:50:02;;;;;;;;;;;;;;;15.91;93.73;98723.31;5032275;28;20267;-61
2021/07/25 00:52:28;;;;;;;;;;;;;;;15.87;93.96;98716.84;5031601;28;19914;-61
2021/07/25 00:54:53;;;;;;;;;;;;;;;15.83;94.10;98715.84;5031344;28;19933;-61
2021/07/25 00:57:18;;;;;;;;;;;;;;;15.80;94.44;98722.63;5032278;28;20004;-61
2021/07/25 00:59:43;;;;;;;;;;;;;;;15.76;94.67;98720.78;5032426;28;19921;-61
2021/07/25 01:02:08;;;;;;;;;;;;;;;15.76;94.58;98721.59;5032711;28;20367;-61
2021/07/25 01:04:34;;;;;;;;;;;;;;;15.76;94.32;98718.09;5036401;28;19975;-61
2021/07/25 01:07:08;;;;;;;;;;;;;;;15.79;94.57;98726.41;5035390;28;19952;-61
2021/07/25 01:09:39;;;;;;;;;;;;;;;15.81;94.09;98723.44;5036167;28;19944;-61
2021/07/25 01:12:05;;;;;;;;;;;;;;;15.77;94.17;98714.28;5035863;28;19947;-61
2021/07/25 01:14:32;;;;;;;;;;;;;;;15.76;94.15;98708.09;5036129;28;20320;-61
2021/07/25 01:17:16;;;;;;;;;;;;;;;15.73;94.31;98711.38;5035816;28;19964;-61
2021/07/25 01:19:41;;;;;;;;;;;;;;;15.68;94.51;98687.88;5036274;28;19917;-61
2021/07/25 01:22:06;;;;;;;;;;;;;;;15.61;94.72;98697.44;5035551;28;19921;-61
2021/07/25 01:24:32;;;;;;;;;;;;;;;15.63;95.04;98693.34;5036186;28;19940;-61
2021/07/25 01:26:57;;;;;;;;;;;;;;;15.60;95.11;98696.63;5035641;28;20334;-61
2021/07/25 01:29:22;;;;;;;;;;;;;;;15.53;95.32;98696.19;5035849;28;19913;-61
2021/07/25 01:31:47;;;;;;;;;;;;;;;15.45;95.96;98705.72;5030806;28;19921;-61
2021/07/25 01:34:13;;;;;;;;;;;;;;;15.41;96.03;98715.47;5031458;28;19944;-61
2021/07/25 01:36:38;;;;;;;;;;;;;;;15.32;96.18;98707.22;5028913;28;19953;-61
2021/07/25 01:39:03;;;;;;;;;;;;;;;15.31;96.56;98710.97;5035740;28;19917;-61
2021/07/25 01:41:29;;;;;;;;;;;;;;;15.25;96.68;98706.72;5023184;28;19917;-61
2021/07/25 01:43:54;;;;;;;;;;;;;;;15.19;96.95;98718.66;5015734;28;19921;-61
2021/07/25 01:46:19;;;;;;;;;;;;;;;15.21;96.82;98711.09;5026248;28;20023;-61
2021/07/25 01:48:45;;;;;;;;;;;;;;;15.23;96.85;98698.13;5035587;28;20298;-61
2021/07/25 01:51:10;;;;;;;;;;;;;;;15.18;96.70;98695.47;5025509;28;20012;-61
2021/07/25 01:53:36;;;;;;;;;;;;;;;15.18;96.78;98694.66;5015914;28;19925;-61
2021/07/25 01:56:01;;;;;;;;;;;;;;;15.11;97.05;98695.00;5023347;28;20012;-61
2021/07/25 01:58:26;;;;;;;;;;;;;;;15.05;97.11;98686.16;5035365;28;19917;-61
2021/07/25 02:00:51;;;;;;;;;;;;;;;15.02;97.49;98694.00;5027953;28;19921;-61
2021/07/25 02:03:23;;;;;;;;;;;;;;;15.01;97.45;98678.91;5015267;28;19922;-61
2021/07/25 02:05:48;;;;;;;;;;;;;;;14.98;97.12;98684.88;5021634;28;20011;-61
2021/07/25 02:08:14;;;;;;;;;;;;;;;14.89;97.13;98679.28;5035267;28;20014;-61
2021/07/25 02:10:42;;;;;;;;;;;;;;;14.85;97.19;98672.81;5029717;28;19921;-61
2021/07/25 02:13:07;;;;;;;;;;;;;;;14.80;97.31;98668.31;5014919;28;20008;-61
2021/07/25 02:15:32;;;;;;;;;;;;;;;14.73;97.22;98673.22;5014856;28;20012;-61
2021/07/25 02:17:57;;;;;;;;;;;;;;;14.68;97.84;98670.56;5014094;28;19917;-61
2021/07/25 02:20:23;;;;;;;;;;;;;;;14.67;97.78;98660.84;5017916;28;19980;-61
2021/07/25 02:22:48;;;;;;;;;;;;;;;14.62;98.12;98661.69;5033952;28;19917;-61
2021/07/25 02:25:13;;;;;;;;;;;;;;;14.64;98.19;98658.72;5034305;28;19924;-61
2021/07/25 02:27:38;;;;;;;;;;;;;;;14.59;98.48;98662.25;5034910;28;19924;-61
2021/07/25 02:30:04;;;;;;;;;;;;;;;14.60;98.44;98660.38;5017042;28;19922;-61
2021/07/25 02:32:29;;;;;;;;;;;;;;;14.51;98.77;98662.84;5033404;28;19967;-61
2021/07/25 02:34:54;;;;;;;;;;;;;;;14.45;99.26;98667.47;5034644;28;20224;-61
2021/07/25 02:37:20;;;;;;;;;;;;;;;14.45;99.83;98662.09;5034301;28;19925;-61
2021/07/25 02:39:45;;;;;;;;;;;;;;;14.45;100.00;98664.78;5034615;28;19928;-62
2021/07/25 02:42:10;;;;;;;;;;;;;;;14.55;100.00;98668.50;5034192;28;20316;-61
2021/07/25 02:44:35;;;;;;;;;;;;;;;14.64;99.60;98680.31;5034393;28;19928;-60
2021/07/25 02:47:01;;;;;;;;;;;;;;;14.75;99.16;98679.16;5034177;28;20116;-61
2021/07/25 02:49:26;;;;;;;;;;;;;;;14.83;99.07;98683.13;5034396;28;19979;-61
2021/07/25 02:51:51;;;;;;;;;;;;;;;14.91;99.09;98676.31;5034024;28;20448;-61
2021/07/25 02:54:16;;;;;;;;;;;;;;;14.94;99.43;98681.94;5034357;28;19917;-61
2021/07/25 02:56:42;;;;;;;;;;;;;;;14.95;99.14;98680.03;5033931;28;19921;-60
2021/07/25 02:59:07;;;;;;;;;;;;;;;15.00;99.29;98683.50;5034091;28;19921;-60
2021/07/25 03:01:32;;;;;;;;;;;;;;;15.01;99.35;98676.19;5033769;28;20052;-60
2021/07/25 03:03:57;;;;;;;;;;;;;;;15.01;99.12;98679.69;5033918;28;20351;-60
2021/07/25 03:06:23;;;;;;;;;;;;;;;15.07;98.83;98685.84;5033224;28;19922;-60
2021/07/25 03:08:48;;;;;;;;;;;;;;;15.09;98.66;98694.47;5034170;28;20275;-60
2021/07/25 03:11:13;;;;;;;;;;;;;;;15.08;98.55;98684.78;5033556;28;19921;-60
2021/07/25 03:13:39;;;;;;;;;;;;;;;15.15;98.25;98685.25;5034061;28;19952;-60
2021/07/25 03:16:04;;;;;;;;;;;;;;;15.14;98.10;98685.53;5033660;28;19986;-61
2021/07/25 03:18:30;;;;;;;;;;;;;;;15.14;97.71;98683.63;5033963;28;19924;-60
2021/07/25 03:20:55;;;;;;;;;;;;;;;15.17;97.24;98677.66;5033401;28;19964;-61
2021/07/25 03:23:21;;;;;;;;;;;;;;;15.17;97.29;98683.03;5033896;28;19936;-61
2021/07/25 03:25:46;;;;;;;;;;;;;;;15.16;97.44;98686.03;5032878;28;19929;-61
2021/07/25 03:28:11;;;;;;;;;;;;;;;15.16;97.52;98691.44;5032596;28;20054;-61
2021/07/25 03:30:37;;;;;;;;;;;;;;;15.17;97.23;98699.25;5031935;28;19932;-61
2021/07/25 03:33:02;;;;;;;;;;;;;;;15.15;97.44;98701.44;5033625;28;19924;-61
2021/07/25 03:35:27;;;;;;;;;;;;;;;15.17;97.37;98704.63;5033201;28;20351;-61
2021/07/25 03:37:52;;;;;;;;;;;;;;;15.21;96.89;98700.28;5033539;28;19917;-60
2021/07/25 03:40:18;;;;;;;;;;;;;;;15.21;97.01;98697.59;5031845;28;19999;-61
2021/07/25 03:42:43;;;;;;;;;;;;;;;15.22;96.68;98696.50;5033648;28;19913;-61
2021/07/25 03:45:08;;;;;;;;;;;;;;;15.22;96.42;98693.78;5033149;28;19917;-61
2021/07/25 03:47:34;;;;;;;;;;;;;;;15.17;96.51;98693.84;5033461;28;20052;-61
2021/07/25 03:49:59;;;;;;;;;;;;;;;15.14;96.56;98699.81;5033331;28;19917;-60
2021/07/25 03:52:24;;;;;;;;;;;;;;;15.18;96.28;98691.97;5031649;28;19921;-60
2021/07/25 03:54:50;;;;;;;;;;;;;;;15.12;96.34;98691.19;5033659;28;20343;-60
2021/07/25 03:57:15;;;;;;;;;;;;;;;15.15;96.34;98693.34;5032891;28;19922;-60
2021/07/25 03:59:40;;;;;;;;;;;;;;;15.09;96.37;98689.88;5032364;28;19924;-60
2021/07/25 04:02:06;;;;;;;;;;;;;;;15.13;96.37;98697.41;5032707;28;19933;-61
2021/07/25 04:04:31;;;;;;;;;;;;;;;15.11;96.22;98700.41;5033111;28;19917;-61
2021/07/25 04:06:56;;;;;;;;;;;;;;;15.12;95.93;98696.59;5032719;28;19990;-60
2021/07/25 04:09:22;;;;;;;;;;;;;;;15.22;95.82;98706.47;5033367;28;19924;-61
2021/07/25 04:11:54;;;;;;;;;;;;;;;15.50;94.89;98702.97;5024009;28;20372;-60
2021/07/25 04:14:20;;;;;;;;;;;;;;;15.39;94.75;98696.03;5013435;28;20010;-60
2021/07/25 04:16:45;;;;;;;;;;;;;;;15.55;94.39;98699.41;5027271;28;19956;-61
2021/07/25 04:19:10;;;;;;;;;;;;;;;16.20;91.52;98703.44;5033539;28;19986;-61
2021/07/25 04:21:35;;;;;;;;;;;;;;;16.26;90.61;98707.69;5019765;28;19921;-61
2021/07/25 04:24:01;;;;;;;;;;;;;;;15.80;92.08;98700.19;5013353;28;19922;-61
2021/07/25 04:26:26;;;;;;;;;;;;;;;15.44;94.22;98708.69;5024698;28;20445;-61
2021/07/25 04:28:51;;;;;;;;;;;;;;;15.36;95.13;98706.63;5032547;28;19916;-60
2021/07/25 04:31:17;;;;;;;;;;;;;;;15.32;95.28;98706.38;5022124;28;19921;-60
2021/07/25 04:33:43;;;;;;;;;;;;;;;15.29;95.21;98710.47;5013180;28;20028;-61
2021/07/25 04:36:14;;;;;;;;;;;;;;;15.31;95.22;98712.88;5023046;28;19921;-60
2021/07/25 04:38:39;;;;;;;;;;;;;;;15.24;95.65;98715.09;5035751;28;19925;-60
2021/07/25 04:41:08;;;;;;;;;;;;;;;15.38;95.30;98715.25;5027838;28;19929;-60
2021/07/25 04:43:33;;;;;;;;;;;;;;;15.38;94.99;98721.44;5015894;28;20375;-60
2021/07/25 04:46:02;;;;;;;;;;;;;;;15.82;93.90;98716.91;5023440;28;19949;-60
2021/07/25 04:48:32;;;;;;;;;;;;;;;15.68;93.90;98719.50;5036764;28;20342;-60
2021/07/25 04:51:01;;;;;;;;;;;;;;;17.31;87.04;98715.50;5027262;28;19975;-61
2021/07/25 04:53:27;;;;;;;;;;;;;;;17.18;87.26;98711.66;5017042;28;19963;-61
2021/07/25 04:55:56;;;;;;;;;;;;;;;17.05;86.69;98721.38;5023893;28;19966;-61
2021/07/25 04:58:22;;;;;;;;;;;;;;;16.91;87.00;98718.63;5036142;28;19917;-61
2021/07/25 05:00:49;;;;;;;;;;;;;;;16.48;89.33;98720.63;5029904;28;19928;-60
2021/07/25 05:03:14;;;;;;;;;;;;;;;16.41;89.92;98723.69;5015389;28;19928;-60
2021/07/25 05:05:40;;;;;;;;;;;;;;;16.58;89.50;98723.19;5020339;28;19922;-61
2021/07/25 05:08:05;;;;;;;;;;;;;;;16.49;89.87;98724.94;5035369;28;20059;-61
2021/07/25 05:10:30;;;;;;;;;;;;;;;16.42;90.53;98732.63;5031982;28;20055;-61
2021/07/25 05:13:05;;;;;;;;;;;;;;;16.33;91.07;98735.19;5016482;28;19964;-61
2021/07/25 05:15:31;;;;;;;;;;;;;;;16.21;91.78;98729.41;5014884;28;19928;-61
2021/07/25 05:17:56;;;;;;;;;;;;;;;16.18;91.64;98726.19;5016658;28;19917;-60
2021/07/25 05:20:26;;;;;;;;;;;;;;;16.18;91.33;98725.38;5017853;28;20299;-61
2021/07/25 05:23:03;;;;;;;;;;;;;;;16.24;90.81;98728.81;5034861;28;20004;-60
2021/07/25 05:25:29;;;;;;;;;;;;;;;16.25;91.15;98735.81;5035791;28;19928;-60
2021/07/25 05:27:55;;;;;;;;;;;;;;;16.99;86.94;98730.66;5035959;28;20016;-60
2021/07/25 05:30:21;;;;;;;;;;;;;;;16.52;87.85;98717.03;5036043;28;19932;-61
2021/07/25 05:32:46;;;;;;;;;;;;;;;16.92;88.17;98735.66;5036063;28;20336;-60
2021/07/25 05:35:11;;;;;;;;;;;;;;;21.26;69.75;98737.56;5035630;28;19961;-61
2021/07/25 05:37:37;;;;;;;;;;;;;;;19.33;74.87;98728.69;5035827;28;19913;-60
2021/07/25 05:40:02;;;;;;;;;;;;;;;19.34;76.02;98736.50;5035698;28;19917;-59
2021/07/25 05:42:28;;;;;;;;;;;;;;;21.02;68.03;98738.13;5035879;28;19919;-60
2021/07/25 05:44:53;;;;;;;;;;;;;;;21.52;64.97;98729.34;5036068;28;20338;-61
2021/07/25 05:47:18;;;;;;;;;;;;;;;19.35;74.30;98731.88;5035031;28;19979;-60
2021/07/25 05:49:43;;;;;;;;;;;;;;;20.42;70.22;98730.78;5035228;28;19921;-60
2021/07/25 05:52:09;;;;;;;;;;;;;;;22.11;65.54;98733.22;5035353;28;19918;-60
2021/07/25 05:54:34;;;;;;;;;;;;;;;23.20;60.65;98734.13;5035688;28;20016;-61
2021/07/25 05:56:59;;;;;;;;;;;;;;;23.98;57.64;98740.59;5035291;28;19947;-61
2021/07/25 05:59:24;;;;;;;;;;;;;;;24.42;56.50;98740.75;5035772;28;20006;-61
2021/07/25 06:01:50;;;;;;;;;;;;;;;26.51;50.60;98731.16;5035089;28;19921;-62
2021/07/25 06:04:15;;;;;;;;;;;;;;;27.51;47.45;98735.88;5035848;28;19948;-61
2021/07/25 06:06:40;;;;;;;;;;;;;;;25.63;52.79;98735.06;5034764;28;19928;-61
2021/07/25 06:09:07;;;;;;;;;;;;;;;27.06;48.48;98727.22;5035469;28;19924;-61
2021/07/25 06:11:32;;;;;;;;;;;;;;;23.03;57.61;98730.41;5028248;28;19971;-61
2021/07/25 06:13:58;;;;;;;;;;;;;;;22.18;61.96;98730.75;5015880;28;19921;-61
2021/07/25 06:16:23;;;;;;;;;;;;;;;22.58;61.69;98719.41;5025209;28;20342;-61
2021/07/25 06:18:48;;;;;;;;;;;;;;;21.80;61.93;98728.09;5035455;28;20315;-61
2021/07/25 06:21:16;;;;;;;;;;;;;;;20.82;67.34;98734.16;5033502;28;19948;-61
2021/07/25 06:23:42;;;;;;;;;;;;;;;21.16;66.26;98723.50;5035258;28;19921;-61
2021/07/25 06:26:07;;;;;;;;;;;;;;;21.55;65.37;98730.63;5034717;28;19921;-61
2021/07/25 06:28:32;;;;;;;;;;;;;;;22.03;64.51;98726.69;5035389;28;19960;-61
2021/07/25 06:30:57;;;;;;;;;;;;;;;20.21;69.95;98731.38;5034648;28;19978;-60
2021/07/25 06:33:24;;;;;;;;;;;;;;;24.03;57.92;98737.63;5034970;28;19917;-61
2021/07/25 06:35:49;;;;;;;;;;;;;;;24.23;56.02;98735.88;5033957;28;20363;-61
2021/07/25 06:38:15;;;;;;;;;;;;;;;25.11;53.25;98733.31;5034929;28;20008;-61
2021/07/25 06:40:41;;;;;;;;;;;;;;;25.70;51.44;98739.94;5034549;28;20359;-62
2021/07/25 06:43:06;;;;;;;;;;;;;;;25.64;51.62;98733.13;5035014;28;20294;-61
2021/07/25 06:45:32;;;;;;;;;;;;;;;23.17;59.80;98738.31;5034329;28;19921;-61
2021/07/25 06:47:57;;;;;;;;;;;;;;;23.88;56.92;98741.84;5034742;28;19917;-61
2021/07/25 06:50:23;;;;;;;;;;;;;;;22.37;63.22;98741.28;5034160;28;19987;-61
2021/07/25 06:52:49;;;;;;;;;;;;;;;22.57;61.28;98745.94;5034636;28;20326;-61
2021/07/25 06:55:14;;;;;;;;;;;;;;;24.14;57.50;98752.44;5034038;28;19920;-61
2021/07/25 06:57:39;;;;;;;;;;;;;;;23.41;58.53;98754.00;5034458;28;19917;-61
2021/07/25 07:00:05;;;;;;;;;;;;;;;24.91;54.28;98766.09;5032862;28;19967;-61
2021/07/25 07:02:48;;;;;;;;;;;;;;;24.08;57.20;98765.53;5032898;28;19968;-61
2021/07/25 07:05:14;;;;;;;;;;;;;;;24.18;56.04;98760.75;5033570;28;19925;-61
2021/07/25 07:07:39;;;;;;;;;;;;;;;24.77;54.55;98765.69;5034309;28;19917;-61
2021/07/25 07:10:04;;;;;;;;;;;;;;;24.01;55.37;98762.63;5033933;28;20335;-61
2021/07/25 07:12:29;;;;;;;;;;;;;;;24.79;55.29;98765.31;5034071;28;19937;-61
2021/07/25 07:14:55;;;;;;;;;;;;;;;25.39;52.51;98760.72;5034188;28;19918;-61
2021/07/25 07:17:22;;;;;;;;;;;;;;;25.66;51.87;98771.97;5033868;28;20371;-61
2021/07/25 07:19:47;;;;;;;;;;;;;;;26.56;48.77;98763.88;5034212;28;19917;-61
2021/07/25 07:22:24;;;;;;;;;;;;;;;23.46;58.01;98764.72;5033613;28;19974;-61
2021/07/25 07:24:49;;;;;;;;;;;;;;;25.68;52.76;98769.66;5034047;28;19917;-61
2021/07/25 07:27:14;;;;;;;;;;;;;;;25.48;53.16;98766.81;5033473;28;19932;-61
2021/07/25 07:29:41;;;;;;;;;;;;;;;25.92;51.30;98764.03;5033897;28;19917;-61
2021/07/25 07:32:06;;;;;;;;;;;;;;;25.47;52.22;98765.25;5033459;28;20311;-61
2021/07/25 07:34:32;;;;;;;;;;;;;;;25.53;52.55;98769.31;5033814;28;19917;-61
2021/07/25 07:36:57;;;;;;;;;;;;;;;26.96;48.65;98757.22;5033456;28;19918;-62
2021/07/25 07:39:23;;;;;;;;;;;;;;;22.79;59.75;98769.38;5033935;28;19924;-61
2021/07/25 07:41:48;;;;;;;;;;;;;;;24.63;53.43;98768.00;5033282;28;19921;-61
2021/07/25 07:44:13;;;;;;;;;;;;;;;27.29;47.53;98760.25;5033791;28;19952;-61
2021/07/25 07:46:39;;;;;;;;;;;;;;;26.51;49.02;98770.47;5033430;28;20391;-61
2021/07/25 07:49:04;;;;;;;;;;;;;;;27.18;47.28;98770.25;5033736;28;19944;-62
2021/07/25 07:51:29;;;;;;;;;;;;;;;27.98;45.25;98758.66;5033193;28;20006;-61
2021/07/25 07:53:54;;;;;;;;;;;;;;;28.44;44.84;98764.84;5033565;28;19982;-61
2021/07/25 07:56:21;;;;;;;;;;;;;;;24.53;54.55;98772.00;5031712;28;19917;-61
2021/07/25 07:58:46;;;;;;;;;;;;;;;25.02;52.81;98771.84;5033592;28;19924;-61
2021/07/25 08:01:11;;;;;;;;;;;;;;;28.52;44.58;98769.31;5032976;28;19921;-61
2021/07/25 08:03:36;;;;;;;;;;;;;;;26.32;49.39;98768.47;5032055;28;19948;-61
2021/07/25 08:06:02;;;;;;;;;;;;;;;26.36;49.40;98772.09;5031667;28;20371;-61
2021/07/25 08:08:27;;;;;;;;;;;;;;;25.88;51.79;98762.34;5033390;28;19917;-61
2021/07/25 08:10:52;;;;;;;;;;;;;;;26.83;48.26;98768.41;5032561;28;19921;-61
2021/07/25 08:13:17;;;;;;;;;;;;;;;25.56;50.52;98768.63;5033474;28;19924;-61
2021/07/25 08:15:43;;;;;;;;;;;;;;;24.83;54.43;98769.75;5033082;28;20402;-61
2021/07/25 08:18:08;;;;;;;;;;;;;;;27.10;46.65;98761.06;5033203;28;19925;-61
2021/07/25 08:20:33;;;;;;;;;;;;;;;28.17;45.28;98772.34;5032751;28;20440;-61
2021/07/25 08:22:58;;;;;;;;;;;;;;;25.12;52.37;98760.38;5033219;28;19918;-61
2021/07/25 08:25:24;;;;;;;;;;;;;;;27.89;46.31;98758.94;5032932;28;20430;-61
2021/07/25 08:27:49;;;;;;;;;;;;;;;26.30;49.11;98772.72;5032910;28;20326;-61
2021/07/25 08:30:14;;;;;;;;;;;;;;;26.06;50.14;98765.50;5031085;28;19921;-60
2021/07/25 08:32:39;;;;;;;;;;;;;;;26.68;48.60;98769.25;5033146;28;19917;-61
2021/07/25 08:35:05;;;;;;;;;;;;;;;27.84;45.67;98770.28;5031562;28;20502;-61
2021/07/25 08:37:30;;;;;;;;;;;;;;;28.17;44.51;98767.63;5033056;28;19920;-61
2021/07/25 08:39:55;;;;;;;;;;;;;;;28.01;45.81;98763.44;5033145;28;19917;-61
2021/07/25 08:42:21;;;;;;;;;;;;;;;27.35;46.63;98760.75;5032679;28;19921;-61
2021/07/25 08:44:46;;;;;;;;;;;;;;;26.31;49.82;98764.13;5031783;28;19917;-61
2021/07/25 08:47:14;;;;;;;;;;;;;;;26.84;49.02;98752.69;5032839;28;19966;-61
2021/07/25 08:49:41;;;;;;;;;;;;;;;27.11;47.95;98756.38;5032959;28;19917;-61
2021/07/25 08:52:06;;;;;;;;;;;;;;;26.24;49.51;98764.75;5031224;28;19925;-61
2021/07/25 08:54:31;;;;;;;;;;;;;;;27.01;48.57;98762.44;5032881;28;20078;-61
2021/07/25 08:56:58;;;;;;;;;;;;;;;28.18;44.62;98768.41;5032550;28;19928;-61
2021/07/25 08:59:23;;;;;;;;;;;;;;;25.89;49.12;98761.22;5033028;28;20016;-61
2021/07/25 09:01:48;;;;;;;;;;;;;;;25.67;50.65;98768.09;5032361;28;20027;-61
2021/07/25 09:04:13;;;;;;;;;;;;;;;26.14;50.30;98770.03;5031664;28;19917;-60
2021/07/25 09:06:40;;;;;;;;;;;;;;;26.51;49.89;98764.13;5030824;28;19921;-61
2021/07/25 09:09:06;;;;;;;;;;;;;;;25.71;51.60;98755.22;5031563;28;19925;-61
2021/07/25 09:11:31;;;;;;;;;;;;;;;26.27;50.03;98762.47;5032254;28;19929;-61
2021/07/25 09:13:58;;;;;;;;;;;;;;;24.29;54.11;98756.41;5064751;28;19967;-60
2021/07/25 09:16:25;;;;;;;;;;;;;;;25.83;50.24;98755.97;5032489;28;19921;-61
2021/07/25 09:18:50;;;;;;;;;;;;;;;25.60;51.25;98753.03;5031642;28;19939;-61
2021/07/25 09:21:35;;;;;;;;;;;;;;;27.75;46.74;98757.50;5032312;28;20323;-61
2021/07/25 09:24:19;;;;;;;;;;;;;;;27.36;48.17;98761.53;5033685;28;19935;-61
2021/07/25 09:26:48;;;;;;;;;;;;;;;26.04;48.00;98765.88;5036044;28;19971;-61
2021/07/25 09:29:17;;;;;;;;;;;;;;;27.32;46.70;98762.28;5068189;28;19914;-61
2021/07/25 09:31:42;;;;;;;;;;;;;;;26.37;47.63;98770.94;5035715;28;19947;-61
2021/07/25 09:34:08;;;;;;;;;;;;;;;25.64;49.71;98774.28;5036338;28;20368;-61
2021/07/25 09:36:33;;;;;;;;;;;;;;;25.77;51.27;98773.03;5034491;28;19951;-61
2021/07/25 09:38:59;;;;;;;;;;;;;;;27.96;45.30;98767.31;5036053;28;20376;-61
2021/07/25 09:41:26;;;;;;;;;;;;;;;27.74;44.61;98775.19;5035526;28;19941;-61
2021/07/25 09:44:01;;;;;;;;;;;;;;;27.38;44.48;98781.22;5035812;28;20429;-61
2021/07/25 09:46:26;;;;;;;;;;;;;;;27.90;44.51;98779.78;5035545;28;20390;-61
2021/07/25 09:48:56;;;;;;;;;;;;;;;27.74;45.27;98777.94;5035830;28;19917;-61
2021/07/25 09:51:21;;;;;;;;;;;;;;;28.47;41.52;98769.63;5035481;28;19921;-61
2021/07/25 09:53:47;;;;;;;;;;;;;;;28.51;42.44;98776.00;5035984;28;20256;-61
2021/07/25 09:56:16;;;;;;;;;;;;;;;28.44;42.74;98770.38;5035445;28;19929;-61
2021/07/25 09:58:42;;;;;;;;;;;;;;;28.67;41.98;98767.53;5035627;28;20007;-61
2021/07/25 10:01:08;;;;;;;;;;;;;;;28.84;41.75;98776.41;5035259;28;20390;-61
2021/07/25 10:03:33;;;;;;;;;;;;;;;26.02;47.27;98763.47;5050724;28;19957;-61
2021/07/25 10:06:19;;;;;;;;;;;;;;;25.70;48.69;98761.88;5035360;28;19921;-61
2021/07/25 10:08:44;;;;;;;;;;;;;;;27.74;44.70;98761.44;5035465;28;19925;-61
2021/07/25 10:11:10;;;;;;;;;;;;;;;25.75;47.15;98759.66;5033876;28;19921;-61
2021/07/25 10:13:35;;;;;;;;;;;;;;;27.10;45.18;98754.75;5034050;28;19917;-61
2021/07/25 10:16:00;;;;;;;;;;;;;;;27.78;42.16;98755.19;5034971;28;19921;-61
2021/07/25 10:18:26;;;;;;;;;;;;;;;27.05;44.69;98755.06;5034012;28;19940;-61
2021/07/25 10:20:54;;;;;;;;;;;;;;;28.24;41.79;98763.41;5034931;28;19928;-61
2021/07/25 10:23:20;;;;;;;;;;;;;;;29.12;39.88;98767.69;5034946;28;20413;-61
2021/07/25 10:25:48;;;;;;;;;;;;;;;29.20;40.45;98772.09;5034536;28;19921;-61
2021/07/25 10:28:13;;;;;;;;;;;;;;;29.34;40.01;98761.22;5033726;28;20359;-61
2021/07/25 10:30:38;;;;;;;;;;;;;;;26.21;45.95;98759.22;5033525;28;19921;-61
2021/07/25 10:33:03;;;;;;;;;;;;;;;26.21;46.72;98759.22;5034988;28;20433;-61
2021/07/25 10:35:29;;;;;;;;;;;;;;;26.90;44.33;98751.25;5033582;28;19924;-60
2021/07/25 10:37:55;;;;;;;;;;;;;;;25.66;46.53;98758.25;5034674;28;20385;-60
2021/07/25 10:40:20;;;;;;;;;;;;;;;25.93;45.47;98757.38;5034436;28;19936;-61
2021/07/25 10:42:47;;;;;;;;;;;;;;;25.71;44.29;98764.28;5033308;28;19925;-60
2021/07/25 10:45:12;;;;;;;;;;;;;;;26.39;43.49;98757.63;5034003;28;19967;-61
2021/07/25 10:47:37;;;;;;;;;;;;;;;26.08;45.42;98754.97;5033326;28;19949;-61
2021/07/25 10:50:06;;;;;;;;;;;;;;;26.58;44.15;98756.09;5034168;28;19924;-61
2021/07/25 10:52:47;;;;;;;;;;;;;;;26.46;43.61;98757.78;5034758;28;19972;-61
2021/07/25 10:55:32;;;;;;;;;;;;;;;26.45;44.63;98747.16;5034426;28;19941;-61
2021/07/25 10:58:01;;;;;;;;;;;;;;;26.88;42.90;98748.06;5034567;28;19921;-61
2021/07/25 11:00:47;;;;;;;;;;;;;;;26.74;43.59;98756.03;5033994;28;19927;-61
2021/07/25 11:03:34;;;;;;;;;;;;;;;26.17;43.95;98750.06;5033629;28;20283;-62
2021/07/25 11:06:05;;;;;;;;;;;;;;;26.69;44.13;98746.13;5013603;28;20042;-61
2021/07/25 11:08:33;;;;;;;;;;;;;;;27.19;42.91;98752.63;5014557;28;19921;-61
2021/07/25 11:10:59;;;;;;;;;;;;;;;27.53;40.90;98756.38;5016140;28;19921;-61
2021/07/25 11:13:42;;;;;;;;;;;;;;;28.86;39.74;98750.06;5034224;28;19929;-62
2021/07/25 11:16:26;;;;;;;;;;;;;;;29.10;37.30;98756.22;5033641;28;20012;-61
2021/07/25 11:18:51;;;;;;;;;;;;;;;26.93;41.54;98745.00;5034418;28;19917;-62
2021/07/25 11:21:29;;;;;;;;;;;;;;;27.99;40.45;98750.03;5033835;28;20260;-62
2021/07/25 11:23:55;;;;;;;;;;;;;;;28.18;39.65;98751.88;5034128;28;19940;-61
2021/07/25 11:26:31;;;;;;;;;;;;;;;29.20;36.96;98750.03;5033619;28;19951;-62
2021/07/25 11:28:56;;;;;;;;;;;;;;;28.97;37.42;98748.19;5034204;28;19948;-62
2021/07/25 11:31:31;;;;;;;;;;;;;;;28.21;38.97;98744.81;5032478;28;20297;-62
2021/07/25 11:33:56;;;;;;;;;;;;;;;28.46;38.30;98740.50;5034163;28;19924;-62
2021/07/25 11:36:22;;;;;;;;;;;;;;;29.56;37.12;98744.88;5033722;28;20338;-62
2021/07/25 11:38:48;;;;;;;;;;;;;;;29.11;36.44;98742.06;5039081;28;19917;-62
2021/07/25 11:41:17;;;;;;;;;;;;;;;27.72;40.40;98738.19;5033531;28;20326;-61
2021/07/25 11:43:58;;;;;;;;;;;;;;;27.15;39.49;98729.72;5033792;28;20004;-62
2021/07/25 11:46:24;;;;;;;;;;;;;;;26.78;41.94;98732.94;5032680;28;19964;-61
2021/07/25 11:49:05;;;;;;;;;;;;;;;28.29;39.08;98733.56;5033775;28;19999;-61
2021/07/25 11:51:30;;;;;;;;;;;;;;;28.66;38.60;98734.84;5033514;28;20330;-61
2021/07/25 11:53:55;;;;;;;;;;;;;;;28.50;37.44;98727.53;5033704;28;20303;-61
2021/07/25 11:56:21;;;;;;;;;;;;;;;27.08;41.58;98724.06;5033219;28;19927;-61
2021/07/25 11:59:15;;;;;;;;;;;;;;;27.01;40.37;98726.69;5033532;28;19971;-61
2021/07/25 12:01:41;;;;;;;;;;;;;;;26.95;40.11;98719.91;5028476;28;20457;-61
2021/07/25 12:04:18;;;;;;;;;;;;;;;27.82;38.70;98723.03;5033330;28;19952;-61
2021/07/25 12:06:45;;;;;;;;;;;;;;;28.45;38.59;98722.38;5032457;28;20145;-62
2021/07/25 12:09:10;;;;;;;;;;;;;;;29.46;36.61;98730.59;5032287;28;19956;-62
2021/07/25 12:11:36;;;;;;;;;;;;;;;29.82;36.11;98719.84;5033041;28;19975;-62
2021/07/25 12:14:01;;;;;;;;;;;;;;;29.51;36.17;98728.66;5033368;28;19924;-62
2021/07/25 12:16:45;;;;;;;;;;;;;;;29.59;35.02;98717.28;5033022;28;20292;-62
2021/07/25 12:19:12;;;;;;;;;;;;;;;27.55;38.19;98709.19;5033588;28;20410;-62
2021/07/25 12:21:37;;;;;;;;;;;;;;;26.08;41.39;98711.03;5033407;28;19921;-62
2021/07/25 12:24:02;;;;;;;;;;;;;;;26.76;40.73;98718.78;5033321;28;19925;-62
2021/07/25 12:26:37;;;;;;;;;;;;;;;24.57;46.64;98711.88;5032902;28;19921;-62
2021/07/25 12:29:23;;;;;;;;;;;;;;;26.52;41.55;98713.53;5033491;28;19970;-62
2021/07/25 12:31:48;;;;;;;;;;;;;;;27.56;39.65;98713.56;5032779;28;19928;-62
2021/07/25 12:34:13;;;;;;;;;;;;;;;27.98;40.00;98714.59;5032927;28;20283;-62
2021/07/25 12:36:38;;;;;;;;;;;;;;;28.66;38.73;98721.06;5032975;28;19921;-62
2021/07/25 12:39:33;;;;;;;;;;;;;;;28.22;39.98;98718.88;5033120;28;19924;-63
2021/07/25 12:42:00;;;;;;;;;;;;;;;27.45;41.61;98715.31;5011875;28;19922;-61
2021/07/25 12:44:26;;;;;;;;;;;;;;;26.97;40.84;98710.13;5012350;28;19918;-61
2021/07/25 12:46:51;;;;;;;;;;;;;;;27.96;38.39;98706.72;5026839;28;19944;-62